sensor_id;sensor_type;location;lat;lon;timestamp;P1;durP1;ratioP1;P2;durP2;ratioP2
11037;SDS011;5572;49.540;11.932;2023-05-21T00:02:09;569.70;;;245.67;;
11037;SDS011;5572;49.540;11.932;2023-05-21T00:04:40;442.60;;;189.83;;
11037;SDS011;5572;49.540;11.932;2023-05-21T00:07:07;450.13;;;200.10;;
11037;SDS011;5572;49.540;11.932;2023-05-21T00:09:33;573.03;;;242.87;;
11037;SDS011;5572;49.540;11.932;2023-05-21T00:12:02;443.07;;;190.17;;
11037;SDS011;5572;49.540;11.932;2023-05-21T00:14:29;447.07;;;193.43;;
11037;SDS011;5572;49.540;11.932;2023-05-21T00:16:55;573.20;;;245.67;;
11037;SDS011;5572;49.540;11.932;2023-05-21T00:19:22;571.47;;;247.10;;
11037;SDS011;5572;49.540;11.932;2023-05-21T00:21:50;572.10;;;250.50;;
11037;SDS011;5572;49.540;11.932;2023-05-21T00:24:16;446.90;;;189.27;;
11037;SDS011;5572;49.540;11.932;2023-05-21T00:26:43;565.27;;;233.13;;
11037;SDS011;5572;49.540;11.932;2023-05-21T00:29:10;571.70;;;239.73;;
11037;SDS011;5572;49.540;11.932;2023-05-21T00:31:36;568.13;;;237.67;;
11037;SDS011;5572;49.540;11.932;2023-05-21T00:34:03;445.20;;;195.87;;
11037;SDS011;5572;49.540;11.932;2023-05-21T00:36:30;442.73;;;188.37;;
11037;SDS011;5572;49.540;11.932;2023-05-21T00:39:00;444.07;;;190.17;;
11037;SDS011;5572;49.540;11.932;2023-05-21T00:41:28;442.33;;;191.27;;
11037;SDS011;5572;49.540;11.932;2023-05-21T00:43:55;575.37;;;240.83;;
11037;SDS011;5572;49.540;11.932;2023-05-21T00:46:24;574.03;;;237.97;;
11037;SDS011;5572;49.540;11.932;2023-05-21T00:48:52;567.17;;;229.70;;
11037;SDS011;5572;49.540;11.932;2023-05-21T00:51:19;443.00;;;182.43;;
11037;SDS011;5572;49.540;11.932;2023-05-21T00:53:48;569.93;;;230.10;;
11037;SDS011;5572;49.540;11.932;2023-05-21T00:56:17;438.50;;;173.37;;
11037;SDS011;5572;49.540;11.932;2023-05-21T00:58:45;564.40;;;220.97;;
11037;SDS011;5572;49.540;11.932;2023-05-21T01:01:13;566.53;;;227.37;;
11037;SDS011;5572;49.540;11.932;2023-05-21T01:03:40;438.80;;;171.40;;
11037;SDS011;5572;49.540;11.932;2023-05-21T01:06:08;441.07;;;179.17;;
11037;SDS011;5572;49.540;11.932;2023-05-21T01:08:35;440.60;;;181.63;;
11037;SDS011;5572;49.540;11.932;2023-05-21T01:11:05;560.67;;;219.37;;
11037;SDS011;5572;49.540;11.932;2023-05-21T01:13:35;565.00;;;216.93;;
11037;SDS011;5572;49.540;11.932;2023-05-21T01:16:04;570.03;;;219.03;;
11037;SDS011;5572;49.540;11.932;2023-05-21T01:18:32;439.27;;;170.57;;
11037;SDS011;5572;49.540;11.932;2023-05-21T01:20:59;441.73;;;172.33;;
11037;SDS011;5572;49.540;11.932;2023-05-21T01:23:27;435.87;;;165.83;;
11037;SDS011;5572;49.540;11.932;2023-05-21T01:25:54;568.83;;;206.70;;
11037;SDS011;5572;49.540;11.932;2023-05-21T01:28:21;567.03;;;210.87;;
11037;SDS011;5572;49.540;11.932;2023-05-21T01:30:47;442.07;;;179.10;;
11037;SDS011;5572;49.540;11.932;2023-05-21T01:33:16;565.03;;;214.63;;
11037;SDS011;5572;49.540;11.932;2023-05-21T01:35:49;562.43;;;209.33;;
11037;SDS011;5572;49.540;11.932;2023-05-21T01:38:23;444.83;;;169.80;;
11037;SDS011;5572;49.540;11.932;2023-05-21T01:40:57;445.83;;;167.13;;
11037;SDS011;5572;49.540;11.932;2023-05-21T01:43:28;434.83;;;161.27;;
11037;SDS011;5572;49.540;11.932;2023-05-21T01:45:56;436.87;;;167.07;;
11037;SDS011;5572;49.540;11.932;2023-05-21T01:48:26;434.50;;;163.03;;
11037;SDS011;5572;49.540;11.932;2023-05-21T01:50:53;438.50;;;160.60;;
11037;SDS011;5572;49.540;11.932;2023-05-21T01:53:22;557.27;;;205.77;;
11037;SDS011;5572;49.540;11.932;2023-05-21T01:55:49;440.03;;;167.03;;
11037;SDS011;5572;49.540;11.932;2023-05-21T01:58:17;434.97;;;159.47;;
11037;SDS011;5572;49.540;11.932;2023-05-21T02:00:45;563.63;;;208.40;;
11037;SDS011;5572;49.540;11.932;2023-05-21T02:03:12;437.27;;;166.80;;
11037;SDS011;5572;49.540;11.932;2023-05-21T02:05:40;443.03;;;170.23;;
11037;SDS011;5572;49.540;11.932;2023-05-21T02:08:06;432.50;;;167.27;;
11037;SDS011;5572;49.540;11.932;2023-05-21T02:10:33;552.37;;;199.50;;
11037;SDS011;5572;49.540;11.932;2023-05-21T02:13:03;552.90;;;202.83;;
11037;SDS011;5572;49.540;11.932;2023-05-21T02:15:31;436.87;;;167.30;;
11037;SDS011;5572;49.540;11.932;2023-05-21T02:17:58;434.20;;;168.57;;
11037;SDS011;5572;49.540;11.932;2023-05-21T02:20:25;557.23;;;200.43;;
11037;SDS011;5572;49.540;11.932;2023-05-21T02:22:51;555.83;;;206.03;;
11037;SDS011;5572;49.540;11.932;2023-05-21T02:25:18;562.83;;;213.43;;
11037;SDS011;5572;49.540;11.932;2023-05-21T02:27:45;558.37;;;214.40;;
11037;SDS011;5572;49.540;11.932;2023-05-21T02:30:12;551.57;;;199.77;;
11037;SDS011;5572;49.540;11.932;2023-05-21T02:32:41;434.27;;;166.17;;
11037;SDS011;5572;49.540;11.932;2023-05-21T02:35:09;432.67;;;160.23;;
11037;SDS011;5572;49.540;11.932;2023-05-21T02:37:36;438.73;;;171.37;;
11037;SDS011;5572;49.540;11.932;2023-05-21T02:40:05;557.57;;;205.67;;
11037;SDS011;5572;49.540;11.932;2023-05-21T02:42:34;552.07;;;203.07;;
11037;SDS011;5572;49.540;11.932;2023-05-21T02:45:01;431.53;;;161.33;;
11037;SDS011;5572;49.540;11.932;2023-05-21T02:47:28;430.97;;;155.17;;
11037;SDS011;5572;49.540;11.932;2023-05-21T02:49:58;435.27;;;165.40;;
11037;SDS011;5572;49.540;11.932;2023-05-21T02:52:25;432.37;;;154.57;;
11037;SDS011;5572;49.540;11.932;2023-05-21T02:54:52;436.57;;;170.17;;
11037;SDS011;5572;49.540;11.932;2023-05-21T02:57:18;563.10;;;204.47;;
11037;SDS011;5572;49.540;11.932;2023-05-21T02:59:45;411.90;;;151.77;;
11037;SDS011;5572;49.540;11.932;2023-05-21T03:02:11;556.23;;;205.63;;
11037;SDS011;5572;49.540;11.932;2023-05-21T03:04:38;554.53;;;205.43;;
11037;SDS011;5572;49.540;11.932;2023-05-21T03:07:11;439.47;;;171.97;;
11037;SDS011;5572;49.540;11.932;2023-05-21T03:09:39;428.73;;;150.63;;
11037;SDS011;5572;49.540;11.932;2023-05-21T03:12:06;431.70;;;158.17;;
11037;SDS011;5572;49.540;11.932;2023-05-21T03:14:33;555.63;;;195.00;;
11037;SDS011;5572;49.540;11.932;2023-05-21T03:17:00;433.57;;;159.50;;
11037;SDS011;5572;49.540;11.932;2023-05-21T03:19:29;556.30;;;192.10;;
11037;SDS011;5572;49.540;11.932;2023-05-21T03:21:58;433.23;;;153.03;;
11037;SDS011;5572;49.540;11.932;2023-05-21T03:24:26;437.77;;;157.83;;
11037;SDS011;5572;49.540;11.932;2023-05-21T03:26:53;546.90;;;183.20;;
11037;SDS011;5572;49.540;11.932;2023-05-21T03:29:19;559.77;;;201.13;;
11037;SDS011;5572;49.540;11.932;2023-05-21T03:31:46;445.33;;;153.37;;
11037;SDS011;5572;49.540;11.932;2023-05-21T03:34:13;561.90;;;202.70;;
11037;SDS011;5572;49.540;11.932;2023-05-21T03:36:40;554.37;;;195.93;;
11037;SDS011;5572;49.540;11.932;2023-05-21T03:39:06;447.40;;;161.70;;
11037;SDS011;5572;49.540;11.932;2023-05-21T03:41:34;437.07;;;156.83;;
11037;SDS011;5572;49.540;11.932;2023-05-21T03:44:01;427.60;;;144.37;;
11037;SDS011;5572;49.540;11.932;2023-05-21T03:46:28;432.73;;;152.13;;
11037;SDS011;5572;49.540;11.932;2023-05-21T03:48:54;433.07;;;157.00;;
11037;SDS011;5572;49.540;11.932;2023-05-21T03:51:22;556.53;;;187.10;;
11037;SDS011;5572;49.540;11.932;2023-05-21T03:53:48;554.00;;;185.33;;
11037;SDS011;5572;49.540;11.932;2023-05-21T03:56:15;554.73;;;186.57;;
11037;SDS011;5572;49.540;11.932;2023-05-21T03:58:43;434.97;;;146.30;;
11037;SDS011;5572;49.540;11.932;2023-05-21T04:01:10;549.33;;;188.57;;
11037;SDS011;5572;49.540;11.932;2023-05-21T04:03:37;433.07;;;159.47;;
11037;SDS011;5572;49.540;11.932;2023-05-21T04:06:05;434.90;;;159.57;;
11037;SDS011;5572;49.540;11.932;2023-05-21T04:08:34;430.13;;;154.90;;
11037;SDS011;5572;49.540;11.932;2023-05-21T04:11:00;554.97;;;193.33;;
11037;SDS011;5572;49.540;11.932;2023-05-21T04:13:27;557.03;;;196.97;;
11037;SDS011;5572;49.540;11.932;2023-05-21T04:15:55;554.00;;;195.27;;
11037;SDS011;5572;49.540;11.932;2023-05-21T04:18:21;313.37;;;116.90;;
11037;SDS011;5572;49.540;11.932;2023-05-21T04:20:49;432.60;;;157.03;;
11037;SDS011;5572;49.540;11.932;2023-05-21T04:23:16;438.00;;;166.80;;
11037;SDS011;5572;49.540;11.932;2023-05-21T04:25:42;431.17;;;161.83;;
11037;SDS011;5572;49.540;11.932;2023-05-21T04:28:09;445.97;;;182.57;;
11037;SDS011;5572;49.540;11.932;2023-05-21T04:30:36;318.03;;;122.17;;
11037;SDS011;5572;49.540;11.932;2023-05-21T04:33:04;431.43;;;161.83;;
11037;SDS011;5572;49.540;11.932;2023-05-21T04:35:31;434.40;;;170.10;;
11037;SDS011;5572;49.540;11.932;2023-05-21T04:37:59;437.37;;;168.00;;
11037;SDS011;5572;49.540;11.932;2023-05-21T04:40:25;560.93;;;212.07;;
11037;SDS011;5572;49.540;11.932;2023-05-21T04:42:52;560.57;;;225.80;;
11037;SDS011;5572;49.540;11.932;2023-05-21T04:45:18;561.33;;;221.63;;
11037;SDS011;5572;49.540;11.932;2023-05-21T04:47:48;444.17;;;187.17;;
11037;SDS011;5572;49.540;11.932;2023-05-21T04:50:16;565.67;;;231.30;;
11037;SDS011;5572;49.540;11.932;2023-05-21T04:52:44;439.10;;;187.33;;
11037;SDS011;5572;49.540;11.932;2023-05-21T04:55:11;319.87;;;133.13;;
11037;SDS011;5572;49.540;11.932;2023-05-21T04:57:38;560.43;;;230.43;;
11037;SDS011;5572;49.540;11.932;2023-05-21T05:00:05;567.20;;;232.90;;
11037;SDS011;5572;49.540;11.932;2023-05-21T05:02:33;439.20;;;182.97;;
11037;SDS011;5572;49.540;11.932;2023-05-21T05:04:59;438.93;;;186.50;;
11037;SDS011;5572;49.540;11.932;2023-05-21T05:07:28;438.40;;;191.40;;
11037;SDS011;5572;49.540;11.932;2023-05-21T05:09:54;438.43;;;189.67;;
11037;SDS011;5572;49.540;11.932;2023-05-21T05:12:21;443.50;;;196.67;;
11037;SDS011;5572;49.540;11.932;2023-05-21T05:14:47;445.43;;;201.90;;
11037;SDS011;5572;49.540;11.932;2023-05-21T05:17:14;454.67;;;203.77;;
11037;SDS011;5572;49.540;11.932;2023-05-21T05:19:40;443.23;;;200.20;;
11037;SDS011;5572;49.540;11.932;2023-05-21T05:22:07;450.47;;;206.53;;
11037;SDS011;5572;49.540;11.932;2023-05-21T05:24:35;448.87;;;209.03;;
11037;SDS011;5572;49.540;11.932;2023-05-21T05:27:01;452.23;;;219.97;;
11037;SDS011;5572;49.540;11.932;2023-05-21T05:29:28;453.57;;;224.77;;
11037;SDS011;5572;49.540;11.932;2023-05-21T05:31:54;456.33;;;221.43;;
11037;SDS011;5572;49.540;11.932;2023-05-21T05:34:21;574.03;;;271.83;;
11037;SDS011;5572;49.540;11.932;2023-05-21T05:36:48;454.40;;;229.83;;
11037;SDS011;5572;49.540;11.932;2023-05-21T05:39:14;579.37;;;268.77;;
11037;SDS011;5572;49.540;11.932;2023-05-21T05:41:42;577.27;;;268.10;;
11037;SDS011;5572;49.540;11.932;2023-05-21T05:44:09;455.10;;;234.07;;
11037;SDS011;5572;49.540;11.932;2023-05-21T05:46:35;452.27;;;228.70;;
11037;SDS011;5572;49.540;11.932;2023-05-21T05:49:02;582.83;;;288.30;;
11037;SDS011;5572;49.540;11.932;2023-05-21T05:51:28;454.20;;;226.10;;
11037;SDS011;5572;49.540;11.932;2023-05-21T05:53:55;453.57;;;227.53;;
11037;SDS011;5572;49.540;11.932;2023-05-21T05:56:22;575.43;;;275.43;;
11037;SDS011;5572;49.540;11.932;2023-05-21T05:58:50;455.63;;;234.93;;
11037;SDS011;5572;49.540;11.932;2023-05-21T06:01:17;576.40;;;270.70;;
11037;SDS011;5572;49.540;11.932;2023-05-21T06:03:46;581.93;;;276.07;;
11037;SDS011;5572;49.540;11.932;2023-05-21T06:06:13;453.50;;;221.57;;
11037;SDS011;5572;49.540;11.932;2023-05-21T06:08:39;450.23;;;217.50;;
11037;SDS011;5572;49.540;11.932;2023-05-21T06:11:06;446.97;;;214.13;;
11037;SDS011;5572;49.540;11.932;2023-05-21T06:13:33;454.90;;;228.43;;
11037;SDS011;5572;49.540;11.932;2023-05-21T06:16:01;447.40;;;217.20;;
11037;SDS011;5572;49.540;11.932;2023-05-21T06:18:28;450.23;;;210.10;;
11037;SDS011;5572;49.540;11.932;2023-05-21T06:20:55;577.90;;;275.97;;
11037;SDS011;5572;49.540;11.932;2023-05-21T06:23:21;450.67;;;218.13;;
11037;SDS011;5572;49.540;11.932;2023-05-21T06:25:48;453.50;;;223.93;;
11037;SDS011;5572;49.540;11.932;2023-05-21T06:28:15;453.13;;;233.67;;
11037;SDS011;5572;49.540;11.932;2023-05-21T06:30:41;451.93;;;228.80;;
11037;SDS011;5572;49.540;11.932;2023-05-21T06:33:09;452.60;;;233.97;;
11037;SDS011;5572;49.540;11.932;2023-05-21T06:35:36;582.13;;;280.57;;
11037;SDS011;5572;49.540;11.932;2023-05-21T06:38:04;458.47;;;234.57;;
11037;SDS011;5572;49.540;11.932;2023-05-21T06:40:30;458.60;;;230.53;;
11037;SDS011;5572;49.540;11.932;2023-05-21T06:42:57;452.83;;;229.43;;
11037;SDS011;5572;49.540;11.932;2023-05-21T06:45:23;455.73;;;230.13;;
11037;SDS011;5572;49.540;11.932;2023-05-21T06:47:50;457.30;;;242.50;;
11037;SDS011;5572;49.540;11.932;2023-05-21T06:50:18;452.20;;;231.30;;
11037;SDS011;5572;49.540;11.932;2023-05-21T06:52:45;458.83;;;245.83;;
11037;SDS011;5572;49.540;11.932;2023-05-21T06:55:12;584.00;;;285.07;;
11037;SDS011;5572;49.540;11.932;2023-05-21T06:57:38;464.77;;;253.17;;
11037;SDS011;5572;49.540;11.932;2023-05-21T07:00:05;453.77;;;233.10;;
11037;SDS011;5572;49.540;11.932;2023-05-21T07:02:34;583.40;;;294.33;;
11037;SDS011;5572;49.540;11.932;2023-05-21T07:05:00;600.17;;;316.20;;
11037;SDS011;5572;49.540;11.932;2023-05-21T07:07:28;592.03;;;320.10;;
11037;SDS011;5572;49.540;11.932;2023-05-21T07:09:55;465.63;;;276.03;;
11037;SDS011;5572;49.540;11.932;2023-05-21T07:12:21;596.03;;;336.67;;
11037;SDS011;5572;49.540;11.932;2023-05-21T07:14:48;472.80;;;287.63;;
11037;SDS011;5572;49.540;11.932;2023-05-21T07:17:14;476.70;;;294.70;;
11037;SDS011;5572;49.540;11.932;2023-05-21T07:19:41;474.93;;;304.07;;
11037;SDS011;5572;49.540;11.932;2023-05-21T07:22:08;461.83;;;274.97;;
11037;SDS011;5572;49.540;11.932;2023-05-21T07:24:37;467.63;;;294.37;;
11037;SDS011;5572;49.540;11.932;2023-05-21T07:27:04;341.93;;;207.03;;
11037;SDS011;5572;49.540;11.932;2023-05-21T07:29:31;585.80;;;328.50;;
11037;SDS011;5572;49.540;11.932;2023-05-21T07:31:58;457.33;;;262.50;;
11037;SDS011;5572;49.540;11.932;2023-05-21T07:34:25;466.53;;;278.80;;
11037;SDS011;5572;49.540;11.932;2023-05-21T07:36:51;457.37;;;266.83;;
11037;SDS011;5572;49.540;11.932;2023-05-21T07:39:18;589.13;;;335.67;;
11037;SDS011;5572;49.540;11.932;2023-05-21T07:41:46;463.73;;;280.17;;
11037;SDS011;5572;49.540;11.932;2023-05-21T07:44:13;469.80;;;291.13;;
11037;SDS011;5572;49.540;11.932;2023-05-21T07:46:39;463.47;;;287.07;;
11037;SDS011;5572;49.540;11.932;2023-05-21T07:49:06;472.60;;;300.67;;
11037;SDS011;5572;49.540;11.932;2023-05-21T07:51:35;597.67;;;347.47;;
11037;SDS011;5572;49.540;11.932;2023-05-21T07:54:01;337.77;;;218.17;;
11037;SDS011;5572;49.540;11.932;2023-05-21T07:56:28;589.17;;;356.73;;
11037;SDS011;5572;49.540;11.932;2023-05-21T07:58:57;467.83;;;301.00;;
11037;SDS011;5572;49.540;11.932;2023-05-21T08:01:24;592.57;;;365.17;;
11037;SDS011;5572;49.540;11.932;2023-05-21T08:03:53;595.83;;;379.67;;
11037;SDS011;5572;49.540;11.932;2023-05-21T08:06:20;470.37;;;324.20;;
11037;SDS011;5572;49.540;11.932;2023-05-21T08:08:48;466.07;;;315.03;;
11037;SDS011;5572;49.540;11.932;2023-05-21T08:11:14;476.10;;;324.30;;
11037;SDS011;5572;49.540;11.932;2023-05-21T08:13:41;341.33;;;225.93;;
11037;SDS011;5572;49.540;11.932;2023-05-21T08:16:09;467.93;;;311.30;;
11037;SDS011;5572;49.540;11.932;2023-05-21T08:18:35;472.13;;;325.90;;
11037;SDS011;5572;49.540;11.932;2023-05-21T08:21:02;469.40;;;325.07;;
11037;SDS011;5572;49.540;11.932;2023-05-21T08:23:29;460.73;;;293.73;;
11037;SDS011;5572;49.540;11.932;2023-05-21T08:25:57;469.33;;;325.00;;
11037;SDS011;5572;49.540;11.932;2023-05-21T08:28:23;471.00;;;323.50;;
11037;SDS011;5572;49.540;11.932;2023-05-21T08:30:51;589.07;;;372.03;;
11037;SDS011;5572;49.540;11.932;2023-05-21T08:33:19;468.33;;;321.20;;
11037;SDS011;5572;49.540;11.932;2023-05-21T08:35:46;466.83;;;314.47;;
11037;SDS011;5572;49.540;11.932;2023-05-21T08:38:12;485.20;;;344.30;;
11037;SDS011;5572;49.540;11.932;2023-05-21T08:40:40;337.40;;;228.20;;
11037;SDS011;5572;49.540;11.932;2023-05-21T08:43:07;465.30;;;327.57;;
11037;SDS011;5572;49.540;11.932;2023-05-21T08:45:37;587.60;;;392.27;;
11037;SDS011;5572;49.540;11.932;2023-05-21T08:48:07;334.47;;;245.93;;
11037;SDS011;5572;49.540;11.932;2023-05-21T08:50:37;475.47;;;326.57;;
11037;SDS011;5572;49.540;11.932;2023-05-21T08:53:05;595.80;;;396.47;;
11037;SDS011;5572;49.540;11.932;2023-05-21T08:55:32;462.60;;;326.73;;
11037;SDS011;5572;49.540;11.932;2023-05-21T08:57:58;470.23;;;346.60;;
11037;SDS011;5572;49.540;11.932;2023-05-21T09:00:27;333.83;;;227.63;;
11037;SDS011;5572;49.540;11.932;2023-05-21T09:02:53;595.80;;;410.17;;
11037;SDS011;5572;49.540;11.932;2023-05-21T09:05:20;469.20;;;349.83;;
11037;SDS011;5572;49.540;11.932;2023-05-21T09:07:52;470.60;;;346.97;;
11037;SDS011;5572;49.540;11.932;2023-05-21T09:10:26;471.47;;;339.77;;
11037;SDS011;5572;49.540;11.932;2023-05-21T09:12:58;594.03;;;406.13;;
11037;SDS011;5572;49.540;11.932;2023-05-21T09:15:25;603.90;;;417.47;;
11037;SDS011;5572;49.540;11.932;2023-05-21T09:17:52;476.83;;;368.60;;
11037;SDS011;5572;49.540;11.932;2023-05-21T09:20:23;598.60;;;423.50;;
11037;SDS011;5572;49.540;11.932;2023-05-21T09:22:52;340.47;;;266.30;;
11037;SDS011;5572;49.540;11.932;2023-05-21T09:25:23;606.77;;;444.43;;
11037;SDS011;5572;49.540;11.932;2023-05-21T09:27:52;610.87;;;432.20;;
11037;SDS011;5572;49.540;11.932;2023-05-21T09:30:20;478.13;;;370.27;;
11037;SDS011;5572;49.540;11.932;2023-05-21T09:32:51;609.33;;;458.10;;
11037;SDS011;5572;49.540;11.932;2023-05-21T09:35:18;610.87;;;452.90;;
11037;SDS011;5572;49.540;11.932;2023-05-21T09:37:46;475.80;;;378.13;;
11037;SDS011;5572;49.540;11.932;2023-05-21T09:40:16;475.87;;;376.33;;
11037;SDS011;5572;49.540;11.932;2023-05-21T09:42:45;477.57;;;391.13;;
11037;SDS011;5572;49.540;11.932;2023-05-21T09:45:16;342.90;;;287.17;;
11037;SDS011;5572;49.540;11.932;2023-05-21T09:47:44;497.37;;;412.60;;
11037;SDS011;5572;49.540;11.932;2023-05-21T09:50:11;618.97;;;485.53;;
11037;SDS011;5572;49.540;11.932;2023-05-21T09:52:38;512.37;;;456.20;;
11037;SDS011;5572;49.540;11.932;2023-05-21T09:55:05;646.90;;;564.50;;
11037;SDS011;5572;49.540;11.932;2023-05-21T09:57:40;330.23;;;244.90;;
11037;SDS011;5572;49.540;11.932;2023-05-21T10:00:08;582.33;;;410.17;;
11037;SDS011;5572;49.540;11.932;2023-05-21T10:02:43;448.60;;;329.10;;
11037;SDS011;5572;49.540;11.932;2023-05-21T10:05:10;443.67;;;322.80;;
11037;SDS011;5572;49.540;11.932;2023-05-21T10:07:40;443.50;;;316.93;;
11037;SDS011;5572;49.540;11.932;2023-05-21T10:10:09;562.77;;;384.17;;
11037;SDS011;5572;49.540;11.932;2023-05-21T10:12:41;439.43;;;326.53;;
11037;SDS011;5572;49.540;11.932;2023-05-21T10:15:12;447.53;;;336.13;;
11037;SDS011;5572;49.540;11.932;2023-05-21T10:17:44;452.07;;;343.07;;
11037;SDS011;5572;49.540;11.932;2023-05-21T10:20:11;438.90;;;307.93;;
11037;SDS011;5572;49.540;11.932;2023-05-21T10:22:38;451.30;;;345.10;;
11037;SDS011;5572;49.540;11.932;2023-05-21T10:25:06;578.13;;;415.43;;
11037;SDS011;5572;49.540;11.932;2023-05-21T10:27:33;563.50;;;386.37;;
11037;SDS011;5572;49.540;11.932;2023-05-21T10:30:03;586.73;;;430.97;;
11037;SDS011;5572;49.540;11.932;2023-05-21T10:32:31;460.53;;;354.03;;
11037;SDS011;5572;49.540;11.932;2023-05-21T10:34:59;454.60;;;336.53;;
11037;SDS011;5572;49.540;11.932;2023-05-21T10:37:27;452.20;;;335.83;;
11037;SDS011;5572;49.540;11.932;2023-05-21T10:39:54;500.87;;;445.77;;
11037;SDS011;5572;49.540;11.932;2023-05-21T10:42:24;470.83;;;394.13;;
11037;SDS011;5572;49.540;11.932;2023-05-21T10:45:14;466.83;;;383.93;;
11037;SDS011;5572;49.540;11.932;2023-05-21T10:47:52;584.27;;;433.60;;
11037;SDS011;5572;49.540;11.932;2023-05-21T10:50:38;456.80;;;373.40;;
11037;SDS011;5572;49.540;11.932;2023-05-21T10:53:20;447.37;;;353.17;;
11037;SDS011;5572;49.540;11.932;2023-05-21T10:55:53;462.03;;;381.87;;
11037;SDS011;5572;49.540;11.932;2023-05-21T10:58:49;573.97;;;428.90;;
11037;SDS011;5572;49.540;11.932;2023-05-21T11:01:33;437.17;;;320.10;;
11037;SDS011;5572;49.540;11.932;2023-05-21T11:04:03;439.27;;;308.93;;
11037;SDS011;5572;49.540;11.932;2023-05-21T11:06:30;439.37;;;322.40;;
11037;SDS011;5572;49.540;11.932;2023-05-21T11:09:00;454.10;;;351.83;;
11037;SDS011;5572;49.540;11.932;2023-05-21T11:11:40;456.07;;;349.50;;
11037;SDS011;5572;49.540;11.932;2023-05-21T11:14:24;579.23;;;402.90;;
11037;SDS011;5572;49.540;11.932;2023-05-21T11:16:59;570.40;;;403.00;;
11037;SDS011;5572;49.540;11.932;2023-05-21T11:19:33;455.77;;;360.97;;
11037;SDS011;5572;49.540;11.932;2023-05-21T11:24:46;451.07;;;337.23;;
11037;SDS011;5572;49.540;11.932;2023-05-21T11:27:18;457.50;;;338.77;;
11037;SDS011;5572;49.540;11.932;2023-05-21T11:29:56;560.87;;;364.43;;
11037;SDS011;5572;49.540;11.932;2023-05-21T11:32:24;453.77;;;334.27;;
11037;SDS011;5572;49.540;11.932;2023-05-21T11:34:51;448.23;;;340.23;;
11037;SDS011;5572;49.540;11.932;2023-05-21T11:37:21;452.87;;;335.30;;
11037;SDS011;5572;49.540;11.932;2023-05-21T11:39:51;452.63;;;345.37;;
11037;SDS011;5572;49.540;11.932;2023-05-21T11:42:28;459.13;;;329.30;;
11037;SDS011;5572;49.540;11.932;2023-05-21T11:44:56;643.63;;;551.77;;
11037;SDS011;5572;49.540;11.932;2023-05-21T11:47:26;531.83;;;475.57;;
11037;SDS011;5572;49.540;11.932;2023-05-21T11:49:57;452.60;;;348.30;;
11037;SDS011;5572;49.540;11.932;2023-05-21T11:52:24;574.07;;;410.40;;
11037;SDS011;5572;49.540;11.932;2023-05-21T11:54:52;461.90;;;376.47;;
11037;SDS011;5572;49.540;11.932;2023-05-21T11:57:21;469.70;;;388.03;;
11037;SDS011;5572;49.540;11.932;2023-05-21T11:59:50;592.20;;;463.53;;
11037;SDS011;5572;49.540;11.932;2023-05-21T12:02:18;463.80;;;378.23;;
11037;SDS011;5572;49.540;11.932;2023-05-21T12:04:47;467.53;;;397.70;;
11037;SDS011;5572;49.540;11.932;2023-05-21T12:07:16;457.80;;;372.80;;
11037;SDS011;5572;49.540;11.932;2023-05-21T12:09:44;586.70;;;453.77;;
11037;SDS011;5572;49.540;11.932;2023-05-21T12:12:12;452.57;;;367.33;;
11037;SDS011;5572;49.540;11.932;2023-05-21T12:14:42;596.93;;;447.40;;
11037;SDS011;5572;49.540;11.932;2023-05-21T12:17:09;459.60;;;381.53;;
11037;SDS011;5572;49.540;11.932;2023-05-21T12:19:37;436.93;;;336.53;;
11037;SDS011;5572;49.540;11.932;2023-05-21T12:22:06;427.87;;;314.37;;
11037;SDS011;5572;49.540;11.932;2023-05-21T12:24:34;433.57;;;327.90;;
11037;SDS011;5572;49.540;11.932;2023-05-21T12:27:02;439.87;;;338.17;;
11037;SDS011;5572;49.540;11.932;2023-05-21T12:29:33;305.57;;;239.13;;
11037;SDS011;5572;49.540;11.932;2023-05-21T12:32:01;295.77;;;232.17;;
11037;SDS011;5572;49.540;11.932;2023-05-21T12:34:39;440.30;;;340.17;;
11037;SDS011;5572;49.540;11.932;2023-05-21T12:37:09;305.40;;;244.77;;
11037;SDS011;5572;49.540;11.932;2023-05-21T12:39:37;435.27;;;336.13;;
11037;SDS011;5572;49.540;11.932;2023-05-21T12:42:04;430.30;;;318.37;;
11037;SDS011;5572;49.540;11.932;2023-05-21T12:44:31;444.83;;;319.80;;
11037;SDS011;5572;49.540;11.932;2023-05-21T12:46:58;438.93;;;337.00;;
11037;SDS011;5572;49.540;11.932;2023-05-21T12:49:34;442.77;;;347.37;;
11037;SDS011;5572;49.540;11.932;2023-05-21T12:52:02;457.43;;;391.50;;
11037;SDS011;5572;49.540;11.932;2023-05-21T12:54:32;323.47;;;286.73;;
11037;SDS011;5572;49.540;11.932;2023-05-21T12:57:09;463.30;;;405.33;;
11037;SDS011;5572;49.540;11.932;2023-05-21T12:59:48;333.27;;;297.40;;
11037;SDS011;5572;49.540;11.932;2023-05-21T13:02:18;314.23;;;275.33;;
11037;SDS011;5572;49.540;11.932;2023-05-21T13:04:46;481.20;;;423.17;;
11037;SDS011;5572;49.540;11.932;2023-05-21T13:07:13;606.60;;;490.10;;
11037;SDS011;5572;49.540;11.932;2023-05-21T13:09:42;474.57;;;418.13;;
11037;SDS011;5572;49.540;11.932;2023-05-21T13:12:10;327.33;;;286.70;;
11037;SDS011;5572;49.540;11.932;2023-05-21T13:14:37;602.27;;;481.13;;
11037;SDS011;5572;49.540;11.932;2023-05-21T13:17:04;606.23;;;488.57;;
11037;SDS011;5572;49.540;11.932;2023-05-21T13:19:31;475.17;;;409.10;;
11037;SDS011;5572;49.540;11.932;2023-05-21T13:21:57;473.87;;;399.80;;
11037;SDS011;5572;49.540;11.932;2023-05-21T13:24:24;459.93;;;362.33;;
11037;SDS011;5572;49.540;11.932;2023-05-21T13:26:52;584.27;;;428.53;;
11037;SDS011;5572;49.540;11.932;2023-05-21T13:29:18;457.63;;;366.30;;
11037;SDS011;5572;49.540;11.932;2023-05-21T13:31:45;454.90;;;367.00;;
11037;SDS011;5572;49.540;11.932;2023-05-21T13:34:11;476.07;;;417.23;;
11037;SDS011;5572;49.540;11.932;2023-05-21T13:36:38;585.37;;;442.50;;
11037;SDS011;5572;49.540;11.932;2023-05-21T13:39:05;311.90;;;242.77;;
11037;SDS011;5572;49.540;11.932;2023-05-21T13:41:32;456.47;;;361.17;;
11037;SDS011;5572;49.540;11.932;2023-05-21T13:44:00;469.53;;;398.20;;
11037;SDS011;5572;49.540;11.932;2023-05-21T13:46:26;591.30;;;472.93;;
11037;SDS011;5572;49.540;11.932;2023-05-21T13:48:53;459.73;;;369.23;;
11037;SDS011;5572;49.540;11.932;2023-05-21T13:51:20;308.73;;;256.43;;
11037;SDS011;5572;49.540;11.932;2023-05-21T13:53:46;469.00;;;388.80;;
11037;SDS011;5572;49.540;11.932;2023-05-21T13:56:13;318.47;;;273.17;;
11037;SDS011;5572;49.540;11.932;2023-05-21T13:58:40;318.90;;;280.40;;
11037;SDS011;5572;49.540;11.932;2023-05-21T14:01:08;311.53;;;262.73;;
11037;SDS011;5572;49.540;11.932;2023-05-21T14:03:35;341.43;;;288.80;;
11037;SDS011;5572;49.540;11.932;2023-05-21T14:06:02;597.40;;;477.00;;